createdAt,value
2022-09-04T00:04:26.306Z,0
2022-09-04T00:09:33.163Z,0
2022-09-04T00:14:40.047Z,0
2022-09-04T00:19:47.517Z,0
2022-09-04T00:24:53.608Z,0
2022-09-04T00:30:00.108Z,0
2022-09-04T00:35:06.605Z,0
2022-09-04T00:45:19.649Z,0
2022-09-04T00:50:26.123Z,0
2022-09-04T00:55:32.617Z,0
2022-09-04T01:00:39.102Z,0
2022-09-04T01:05:45.594Z,0
2022-09-04T01:10:52.051Z,0
2022-09-04T01:15:58.560Z,0
2022-09-04T01:21:05.072Z,0
2022-09-04T01:26:11.581Z,0
2022-09-04T01:31:18.081Z,0
2022-09-04T01:36:24.571Z,0
2022-09-04T01:41:31.090Z,0
2022-09-04T01:46:37.615Z,0
2022-09-04T01:51:44.095Z,0
2022-09-04T01:56:50.575Z,0
2022-09-04T02:01:57.072Z,0
2022-09-04T02:07:03.580Z,0
2022-09-04T02:12:10.118Z,0
2022-09-04T02:17:16.573Z,0
2022-09-04T02:22:23.060Z,0
2022-09-04T02:27:29.550Z,0
2022-09-04T02:32:36.218Z,0
2022-09-04T02:37:42.848Z,0
2022-09-04T02:42:49.480Z,0
2022-09-04T02:47:56.084Z,0
2022-09-04T02:53:02.714Z,0
2022-09-04T02:58:09.355Z,0
2022-09-04T03:03:16.013Z,0
2022-09-04T03:08:22.603Z,0
2022-09-04T03:13:29.242Z,0
2022-09-04T03:18:35.910Z,0
2022-09-04T03:23:42.525Z,0
2022-09-04T03:28:49.176Z,0
2022-09-04T03:33:55.809Z,0
2022-09-04T03:39:02.743Z,0
2022-09-04T03:44:08.320Z,1
2022-09-04T03:49:14.675Z,2
2022-09-04T03:54:21.054Z,2
2022-09-04T03:59:27.402Z,1
2022-09-04T04:04:33.744Z,3
2022-09-04T04:09:40.067Z,7
2022-09-04T04:14:46.466Z,14
2022-09-04T04:19:52.762Z,27
2022-09-04T04:24:59.155Z,51
2022-09-04T04:30:05.501Z,129
2022-09-04T04:35:11.854Z,229
2022-09-04T04:40:18.220Z,367
2022-09-04T04:45:24.554Z,496
2022-09-04T04:50:30.903Z,660
2022-09-04T04:55:37.275Z,1036
2022-09-04T05:00:43.638Z,1318
2022-09-04T05:05:49.981Z,1472
2022-09-04T05:10:56.347Z,1658
2022-09-04T05:16:02.721Z,1944
2022-09-04T05:21:09.064Z,2082
2022-09-04T05:26:15.443Z,2295
2022-09-04T05:31:21.832Z,2525
2022-09-04T05:36:28.185Z,2918
2022-09-04T05:41:34.525Z,2699
2022-09-04T05:46:40.903Z,3059
2022-09-04T05:51:47.283Z,3302
2022-09-04T05:56:53.722Z,3579
2022-09-04T06:02:00.178Z,3510
2022-09-04T06:07:06.603Z,3811
2022-09-04T06:12:13.032Z,3787
2022-09-04T06:17:19.452Z,3960
2022-09-04T06:22:25.886Z,3997
2022-09-04T06:27:32.357Z,4045
2022-09-04T06:32:38.810Z,4068
2022-09-04T06:37:45.271Z,4072
2022-09-04T06:42:51.645Z,4177
2022-09-04T06:47:58.044Z,4485
2022-09-04T06:58:11.076Z,3990
2022-09-04T07:03:17.645Z,4484
2022-09-04T07:08:24.217Z,4616
2022-09-04T07:13:30.868Z,4663
2022-09-04T07:18:37.449Z,4861
2022-09-04T07:23:44.040Z,5102
2022-09-04T07:28:50.641Z,4993
2022-09-04T07:39:03.873Z,4944
2022-09-04T07:44:10.463Z,3718
2022-09-04T07:49:17.053Z,4842
2022-09-04T07:54:23.678Z,7028
2022-09-04T07:59:30.223Z,7323
2022-09-04T08:04:37.076Z,4884
2022-09-04T08:09:43.933Z,8094
2022-09-04T08:14:50.790Z,8247
2022-09-04T08:19:57.568Z,7234
2022-09-04T08:25:04.385Z,6750
2022-09-04T08:30:11.218Z,6695
2022-09-04T08:35:18.088Z,6911
2022-09-04T08:40:24.892Z,6457
2022-09-04T08:45:31.723Z,5538
2022-09-04T08:50:38.574Z,8145
2022-09-04T08:55:45.393Z,5435
2022-09-04T09:00:52.219Z,6092
2022-09-04T09:05:59.045Z,5419
2022-09-04T09:11:06.537Z,6414
2022-09-04T09:16:12.529Z,6165
2022-09-04T09:21:19.027Z,4850
2022-09-04T09:26:25.414Z,6489
2022-09-04T09:31:31.893Z,7736
2022-09-04T09:36:38.365Z,7967
2022-09-04T09:41:44.800Z,7229
2022-09-04T09:46:51.229Z,6372
2022-09-04T09:51:57.663Z,5017
2022-09-04T09:57:04.118Z,9365
2022-09-04T10:02:10.564Z,6906
2022-09-04T10:07:17.053Z,7497
2022-09-04T10:12:23.494Z,9295
2022-09-04T10:17:29.933Z,6045
2022-09-04T10:22:36.434Z,9180
2022-09-04T10:27:42.859Z,10366
2022-09-04T10:32:49.297Z,4245
2022-09-04T10:37:55.747Z,6581
2022-09-04T10:43:02.217Z,6968
2022-09-04T10:48:08.671Z,7096
2022-09-04T10:53:15.117Z,6326
2022-09-04T10:58:21.573Z,6083
2022-09-04T11:03:28.051Z,5800
2022-09-04T11:08:34.515Z,7518
2022-09-04T11:13:40.952Z,6006
2022-09-04T11:18:47.382Z,6970
2022-09-04T11:23:53.970Z,8372
2022-09-04T11:29:00.544Z,7084
2022-09-04T11:34:07.112Z,6479
2022-09-04T11:39:13.693Z,9235
2022-09-04T11:44:20.270Z,7500
2022-09-04T11:49:26.914Z,8345
2022-09-04T11:54:33.533Z,9948
2022-09-04T11:59:40.118Z,8168
2022-09-04T12:04:46.740Z,7258
2022-09-04T12:09:53.356Z,8198
2022-09-04T12:14:59.935Z,8271
2022-09-04T12:20:06.476Z,7127
2022-09-04T12:25:13.051Z,7107
2022-09-04T12:30:19.910Z,7267
2022-09-04T12:35:26.721Z,6681
2022-09-04T12:40:33.540Z,7410
2022-09-04T12:45:40.369Z,6924
2022-09-04T12:50:47.249Z,6657
2022-09-04T12:55:54.032Z,7446
2022-09-04T13:01:00.886Z,7343
2022-09-04T13:06:07.707Z,7971
2022-09-04T13:11:14.551Z,7018
2022-09-04T13:16:21.390Z,7456
2022-09-04T13:21:28.231Z,7627
2022-09-04T13:26:35.115Z,7878
2022-09-04T13:31:41.881Z,7785
2022-09-04T13:36:49.375Z,8145
2022-09-04T13:41:55.419Z,8674
2022-09-04T13:47:01.849Z,8324
2022-09-04T13:52:08.334Z,8836
2022-09-04T13:57:14.793Z,8816
2022-09-04T14:02:21.321Z,7612
2022-09-04T14:07:27.749Z,9070
2022-09-04T14:12:34.245Z,8205
2022-09-04T14:17:40.725Z,9049
2022-09-04T14:22:47.297Z,10136
2022-09-04T14:27:53.691Z,9737
2022-09-04T14:38:06.610Z,6620
2022-09-04T14:43:13.092Z,10343
2022-09-04T14:48:19.577Z,11210
2022-09-04T14:53:26.042Z,10242
2022-09-04T14:58:32.497Z,10556
2022-09-04T15:03:38.960Z,9547
2022-09-04T15:08:45.414Z,9858
2022-09-04T15:13:51.855Z,10441
2022-09-04T15:18:58.305Z,10974
2022-09-04T15:24:04.774Z,11873
2022-09-04T15:29:11.206Z,10147
2022-09-04T15:34:17.646Z,10254
2022-09-04T15:39:24.098Z,10148
2022-09-04T15:44:30.536Z,7113
2022-09-04T15:49:37.146Z,3687
2022-09-04T15:54:43.733Z,22027
2022-09-04T15:59:50.333Z,15015
2022-09-04T16:04:56.939Z,15702
2022-09-04T16:10:03.545Z,10208
2022-09-04T16:15:10.154Z,8340
2022-09-04T16:20:16.736Z,5437
2022-09-04T16:25:23.340Z,8576
2022-09-04T16:30:29.927Z,3021
2022-09-04T16:35:36.516Z,14626
2022-09-04T16:40:43.134Z,14539
2022-09-04T16:45:49.787Z,2821
2022-09-04T16:50:56.334Z,12214
2022-09-04T16:56:03.176Z,6503
2022-09-04T17:01:10.010Z,3688
2022-09-04T17:06:16.827Z,4139
2022-09-04T17:11:23.639Z,3471
2022-09-04T17:16:30.466Z,3176
2022-09-04T17:21:37.312Z,2644
2022-09-04T17:26:44.143Z,2431
2022-09-04T17:31:51.011Z,2460
2022-09-04T17:36:57.819Z,1935
2022-09-04T17:42:04.642Z,1404
2022-09-04T17:47:11.460Z,823
2022-09-04T17:52:18.360Z,482
2022-09-04T17:57:25.128Z,289
2022-09-04T18:02:32.581Z,171
2022-09-04T18:07:38.603Z,94
2022-09-04T18:12:45.002Z,48
2022-09-04T18:17:51.418Z,20
2022-09-04T18:22:57.862Z,10
2022-09-04T18:28:04.273Z,3
2022-09-04T18:33:10.694Z,2
2022-09-04T18:38:17.183Z,0
2022-09-04T18:43:23.650Z,0
2022-09-04T18:48:30.110Z,0
2022-09-04T18:53:36.616Z,0
2022-09-04T18:58:43.059Z,0
2022-09-04T19:03:49.663Z,0
2022-09-04T19:08:56.060Z,0
2022-09-04T19:14:02.531Z,0
2022-09-04T19:19:09.060Z,0
2022-09-04T19:24:15.576Z,0
2022-09-04T19:29:22.072Z,0
2022-09-04T19:34:28.545Z,0
2022-09-04T19:39:35.011Z,0
2022-09-04T19:44:41.522Z,0
2022-09-04T19:49:48.025Z,0
2022-09-04T19:54:54.533Z,0
2022-09-04T20:00:01.022Z,0
2022-09-04T20:05:07.770Z,0
2022-09-04T20:10:13.985Z,0
2022-09-04T20:15:20.606Z,0
2022-09-04T20:20:27.249Z,0
2022-09-04T20:25:33.895Z,0
2022-09-04T20:30:40.489Z,0
2022-09-04T20:35:47.097Z,0
2022-09-04T20:40:53.709Z,0
2022-09-04T20:46:00.334Z,0
2022-09-04T20:51:06.936Z,0
2022-09-04T20:56:13.557Z,0
2022-09-04T21:01:20.154Z,0
2022-09-04T21:06:26.802Z,0
2022-09-04T21:11:33.425Z,0
2022-09-04T21:16:40.048Z,0
2022-09-04T21:21:46.956Z,0
2022-09-04T21:26:53.800Z,0
2022-09-04T21:32:00.633Z,0
2022-09-04T21:37:07.484Z,0
2022-09-04T21:42:14.307Z,0
2022-09-04T21:47:21.177Z,0
2022-09-04T21:52:28.002Z,0
2022-09-04T21:57:34.859Z,0
2022-09-04T22:02:41.724Z,0
2022-09-04T22:07:48.584Z,0
2022-09-04T22:12:55.466Z,0
2022-09-04T22:18:02.292Z,0
2022-09-04T22:23:09.177Z,0
2022-09-04T22:28:16.638Z,0
2022-09-04T22:33:22.682Z,0
2022-09-04T22:38:29.171Z,0
2022-09-04T22:43:35.691Z,0
2022-09-04T22:48:42.167Z,0
2022-09-04T22:53:48.623Z,0
2022-09-04T22:58:55.117Z,0
2022-09-04T23:04:01.607Z,0
2022-09-04T23:09:08.086Z,0
2022-09-04T23:14:14.575Z,0
2022-09-04T23:19:21.047Z,0
2022-09-04T23:24:27.549Z,0
2022-09-04T23:29:34.039Z,0
2022-09-04T23:34:40.503Z,0
2022-09-04T23:39:46.995Z,0
2022-09-04T23:44:53.489Z,0
2022-09-04T23:49:59.987Z,0
2022-09-04T23:55:06.486Z,0
